DYE465 LIRN-LIMJ
Flight info
| Callsign | DYE465 |
|---|---|
| Flight time | 1h 33m |
| Altitude | 34000 |
| Route | VEXUV8G VEXUV DCT PNZ DCT LUNAK DCT RAVAL DCT ELB DCT NORNI DCT BETEN/N0456F190 M729 IDONA IDONA1J |
| Aircraft | A20N/M-SDE2E3FGHIRWXY/LB1 |
Departure
| Time | 2026-04-21 19:15 |
|---|---|
| Airport | Naples International Airport (LIRN) |
Arrival
| Time | 2026-04-21 20:49 |
|---|---|
| Airport | Genoa Cristoforo Colombo Airport (LIMJ) |
| Time | Latitude | Longitude | Altitude | Speed | Heading |
|---|---|---|---|---|---|
| 2026-04-21 18:24 | 40.88112 | 14.28501 | 286 ft | 0 kts | 8° |
| 2026-04-21 19:03 | 40.88107 | 14.28500 | 286 ft | 2 kts | 8° |
| 2026-04-21 19:03 | 40.88091 | 14.28497 | 263 ft | 2 kts | 11° |
| 2026-04-21 19:04 | 40.88075 | 14.28492 | 302 ft | 2 kts | 15° |
| 2026-04-21 19:04 | 40.88059 | 14.28485 | 290 ft | 2 kts | 33° |
| 2026-04-21 19:04 | 40.88049 | 14.28468 | 290 ft | 2 kts | 97° |
| 2026-04-21 19:04 | 40.88050 | 14.28457 | 295 ft | 0 kts | 98° |
| 2026-04-21 19:06 | 40.88047 | 14.28484 | 296 ft | 8 kts | 99° |
| 2026-04-21 19:06 | 40.88052 | 14.28605 | 285 ft | 18 kts | 66° |
| 2026-04-21 19:06 | 40.88141 | 14.28770 | 280 ft | 26 kts | 51° |
| 2026-04-21 19:07 | 40.88270 | 14.28987 | 275 ft | 33 kts | 53° |
| 2026-04-21 19:07 | 40.88424 | 14.29252 | 265 ft | 39 kts | 52° |
| 2026-04-21 19:07 | 40.88605 | 14.29565 | 255 ft | 45 kts | 52° |
| 2026-04-21 19:07 | 40.88778 | 14.29867 | 245 ft | 26 kts | 54° |
| 2026-04-21 19:08 | 40.88884 | 14.30059 | 239 ft | 26 kts | 54° |
| 2026-04-21 19:08 | 40.88929 | 14.30141 | 237 ft | 0 kts | 53° |
| 2026-04-21 19:10 | 40.88940 | 14.30160 | 236 ft | 6 kts | 53° |
| 2026-04-21 19:10 | 40.88972 | 14.30215 | 235 ft | 9 kts | 53° |
| 2026-04-21 19:10 | 40.89023 | 14.30258 | 233 ft | 9 kts | 5° |
| 2026-04-21 19:10 | 40.89036 | 14.30257 | 232 ft | 0 kts | 354° |
| 2026-04-21 19:14 | 40.89046 | 14.30254 | 233 ft | 14 kts | 348° |
| 2026-04-21 19:14 | 40.89114 | 14.30172 | 233 ft | 7 kts | 257° |
| 2026-04-21 19:14 | 40.88973 | 14.29843 | 245 ft | 83 kts | 237° |
| 2026-04-21 19:15 | 40.88515 | 14.28889 | 274 ft | 160 kts | 238° |
| 2026-04-21 19:15 | 40.87844 | 14.27490 | 793 ft | 174 kts | 239° |
| 2026-04-21 19:15 | 40.87238 | 14.26221 | 1662 ft | 159 kts | 238° |
| 2026-04-21 19:15 | 40.86684 | 14.25022 | 2855 ft | 141 kts | 240° |
| 2026-04-21 19:16 | 40.85939 | 14.24007 | 3143 ft | 189 kts | 196° |
| 2026-04-21 19:16 | 40.84416 | 14.24092 | 3227 ft | 239 kts | 165° |
| 2026-04-21 19:16 | 40.82869 | 14.24682 | 4406 ft | 225 kts | 166° |
| 2026-04-21 19:16 | 40.81372 | 14.25244 | 5026 ft | 222 kts | 166° |
| 2026-04-21 19:17 | 40.78321 | 14.26361 | 5743 ft | 231 kts | 168° |
| 2026-04-21 19:17 | 40.76757 | 14.26894 | 5895 ft | 232 kts | 169° |
| 2026-04-21 19:17 | 40.75195 | 14.27396 | 5960 ft | 231 kts | 169° |
| 2026-04-21 19:18 | 40.73629 | 14.27876 | 6389 ft | 230 kts | 170° |
| 2026-04-21 19:18 | 40.72030 | 14.28000 | 7060 ft | 231 kts | 202° |
| 2026-04-21 19:18 | 40.70577 | 14.27097 | 7753 ft | 237 kts | 215° |
| 2026-04-21 19:18 | 40.69228 | 14.25983 | 8405 ft | 212 kts | 219° |
| 2026-04-21 19:19 | 40.67991 | 14.24848 | 9081 ft | 221 kts | 221° |
| 2026-04-21 19:19 | 40.66752 | 14.23598 | 9783 ft | 229 kts | 224° |
| 2026-04-21 19:19 | 40.65494 | 14.22250 | 10413 ft | 238 kts | 225° |
| 2026-04-21 19:19 | 40.64206 | 14.20819 | 11058 ft | 247 kts | 226° |
| 2026-04-21 19:20 | 40.62879 | 14.19317 | 11708 ft | 256 kts | 226° |
| 2026-04-21 19:20 | 40.61509 | 14.17752 | 12364 ft | 264 kts | 226° |
| 2026-04-21 19:20 | 40.60097 | 14.16136 | 13026 ft | 274 kts | 226° |
| 2026-04-21 19:20 | 40.58636 | 14.14462 | 13660 ft | 283 kts | 226° |
| 2026-04-21 19:21 | 40.57151 | 14.12767 | 14226 ft | 292 kts | 226° |
| 2026-04-21 19:21 | 40.55564 | 14.10958 | 14807 ft | 300 kts | 226° |
| 2026-04-21 19:21 | 40.53991 | 14.09170 | 15386 ft | 308 kts | 226° |
| 2026-04-21 19:21 | 40.52472 | 14.07137 | 15994 ft | 308 kts | 238° |
| 2026-04-21 19:22 | 40.51274 | 14.04821 | 16590 ft | 315 kts | 243° |
| 2026-04-21 19:22 | 40.50179 | 14.02261 | 17208 ft | 328 kts | 246° |
| 2026-04-21 19:22 | 40.49157 | 13.99538 | 17838 ft | 340 kts | 249° |
| 2026-04-21 19:22 | 40.48173 | 13.96655 | 18447 ft | 344 kts | 250° |
| 2026-04-21 19:23 | 40.47249 | 13.93769 | 18999 ft | 345 kts | 251° |
| 2026-04-21 19:23 | 40.46343 | 13.90800 | 19584 ft | 347 kts | 252° |
| 2026-04-21 19:23 | 40.45476 | 13.87862 | 20160 ft | 351 kts | 253° |
| 2026-04-21 19:23 | 40.44608 | 13.84856 | 20751 ft | 354 kts | 253° |
| 2026-04-21 19:24 | 40.43744 | 13.81818 | 21355 ft | 356 kts | 254° |
| 2026-04-21 19:24 | 40.43358 | 13.78663 | 22004 ft | 350 kts | 278° |
| 2026-04-21 19:24 | 40.44107 | 13.75663 | 22674 ft | 353 kts | 297° |
| 2026-04-21 19:24 | 40.45368 | 13.72857 | 23306 ft | 358 kts | 302° |
| 2026-04-21 19:25 | 40.46760 | 13.70131 | 23896 ft | 361 kts | 304° |
| 2026-04-21 19:25 | 40.48230 | 13.67439 | 24456 ft | 362 kts | 305° |
| 2026-04-21 19:25 | 40.49740 | 13.64786 | 25023 ft | 363 kts | 306° |
| 2026-04-21 19:25 | 40.51276 | 13.62156 | 25604 ft | 365 kts | 306° |
| 2026-04-21 19:26 | 40.52851 | 13.59500 | 26198 ft | 368 kts | 306° |
| 2026-04-21 19:26 | 40.54432 | 13.56859 | 26804 ft | 371 kts | 306° |
| 2026-04-21 19:26 | 40.56046 | 13.54188 | 27423 ft | 373 kts | 307° |
| 2026-04-21 19:26 | 40.57603 | 13.51624 | 28045 ft | 339 kts | 306° |
| 2026-04-21 19:27 | 40.59034 | 13.49272 | 28609 ft | 328 kts | 306° |
| 2026-04-21 19:27 | 40.60458 | 13.46915 | 29113 ft | 331 kts | 306° |
| 2026-04-21 19:27 | 40.61430 | 13.45301 | 29516 ft | 333 kts | 306° |
| 2026-04-21 19:27 | 40.63343 | 13.42123 | 30270 ft | 336 kts | 306° |
| 2026-04-21 19:28 | 40.64306 | 13.40520 | 30616 ft | 337 kts | 306° |
| 2026-04-21 19:28 | 40.65763 | 13.38093 | 31120 ft | 339 kts | 306° |
| 2026-04-21 19:28 | 40.67221 | 13.35665 | 31643 ft | 340 kts | 306° |
| 2026-04-21 19:28 | 40.68697 | 13.33206 | 32136 ft | 342 kts | 306° |
| 2026-04-21 19:29 | 40.70186 | 13.30743 | 32635 ft | 344 kts | 306° |
| 2026-04-21 19:29 | 40.71684 | 13.28272 | 33122 ft | 346 kts | 306° |
| 2026-04-21 19:29 | 40.73186 | 13.25793 | 33583 ft | 348 kts | 306° |
| 2026-04-21 19:29 | 40.74707 | 13.23277 | 33806 ft | 357 kts | 306° |
| 2026-04-21 19:30 | 40.76280 | 13.20669 | 33899 ft | 368 kts | 306° |
| 2026-04-21 19:30 | 40.77886 | 13.18002 | 33926 ft | 371 kts | 306° |
| 2026-04-21 19:30 | 40.81013 | 13.12813 | 33940 ft | 358 kts | 306° |
| 2026-04-21 19:31 | 40.84058 | 13.07746 | 33942 ft | 333 kts | 306° |
| 2026-04-21 19:31 | 40.85447 | 13.05431 | 33944 ft | 314 kts | 306° |
| 2026-04-21 19:31 | 40.86787 | 13.03188 | 33947 ft | 307 kts | 306° |
| 2026-04-21 19:32 | 40.89470 | 12.98750 | 33953 ft | 312 kts | 308° |
| 2026-04-21 19:32 | 40.92394 | 12.94463 | 33952 ft | 314 kts | 310° |
| 2026-04-21 19:33 | 40.95388 | 12.90283 | 33951 ft | 313 kts | 310° |
| 2026-04-21 19:33 | 40.98416 | 12.86126 | 33949 ft | 315 kts | 311° |
| 2026-04-21 19:34 | 41.01467 | 12.81967 | 33948 ft | 314 kts | 311° |
| 2026-04-21 19:34 | 41.04505 | 12.77832 | 33947 ft | 313 kts | 311° |
| 2026-04-21 19:35 | 41.09076 | 12.71613 | 33946 ft | 315 kts | 311° |
| 2026-04-21 19:36 | 41.12135 | 12.67444 | 33951 ft | 314 kts | 311° |
| 2026-04-21 19:36 | 41.15178 | 12.63294 | 33944 ft | 314 kts | 311° |
| 2026-04-21 19:37 | 41.18205 | 12.59160 | 33950 ft | 315 kts | 311° |
| 2026-04-21 19:37 | 41.21270 | 12.54970 | 33948 ft | 314 kts | 311° |
| 2026-04-21 19:38 | 41.24302 | 12.50819 | 33947 ft | 314 kts | 311° |
| 2026-04-21 19:38 | 41.27350 | 12.46642 | 33946 ft | 314 kts | 311° |
| 2026-04-21 19:39 | 41.30371 | 12.42495 | 33943 ft | 314 kts | 311° |
| 2026-04-21 19:39 | 41.33430 | 12.38290 | 33945 ft | 313 kts | 311° |
| 2026-04-21 19:40 | 41.36436 | 12.34151 | 33946 ft | 313 kts | 311° |
| 2026-04-21 19:40 | 41.39471 | 12.29966 | 33942 ft | 314 kts | 310° |
| 2026-04-21 19:41 | 41.42505 | 12.25779 | 33942 ft | 313 kts | 310° |
| 2026-04-21 19:41 | 41.45521 | 12.21610 | 33941 ft | 313 kts | 310° |
| 2026-04-21 19:42 | 41.48545 | 12.17422 | 33940 ft | 313 kts | 310° |
| 2026-04-21 19:42 | 41.51568 | 12.13231 | 33940 ft | 313 kts | 310° |
| 2026-04-21 19:43 | 41.54575 | 12.09055 | 33942 ft | 312 kts | 310° |
| 2026-04-21 19:43 | 41.57581 | 12.04875 | 33939 ft | 312 kts | 310° |
| 2026-04-21 19:44 | 41.60584 | 12.00691 | 33941 ft | 312 kts | 310° |
| 2026-04-21 19:44 | 41.63578 | 11.96517 | 33938 ft | 311 kts | 310° |
| 2026-04-21 19:45 | 41.66574 | 11.92330 | 33938 ft | 311 kts | 310° |
| 2026-04-21 19:45 | 41.69583 | 11.88115 | 33937 ft | 312 kts | 310° |
| 2026-04-21 19:46 | 41.72569 | 11.83916 | 33940 ft | 311 kts | 310° |
| 2026-04-21 19:46 | 41.75543 | 11.79720 | 33956 ft | 311 kts | 310° |
| 2026-04-21 19:47 | 41.78514 | 11.75514 | 33956 ft | 312 kts | 310° |
| 2026-04-21 19:47 | 41.81512 | 11.71289 | 33944 ft | 311 kts | 310° |
| 2026-04-21 19:48 | 41.84482 | 11.67110 | 33943 ft | 310 kts | 310° |
| 2026-04-21 19:48 | 41.87465 | 11.62905 | 33943 ft | 311 kts | 310° |
| 2026-04-21 19:49 | 41.90439 | 11.58708 | 33942 ft | 310 kts | 310° |
| 2026-04-21 19:49 | 41.93412 | 11.54506 | 33944 ft | 309 kts | 310° |
| 2026-04-21 19:50 | 41.95871 | 11.51026 | 33940 ft | 310 kts | 310° |
| 2026-04-21 19:50 | 41.99340 | 11.46109 | 33941 ft | 310 kts | 310° |
| 2026-04-21 19:51 | 42.02298 | 11.41911 | 33948 ft | 308 kts | 310° |
| 2026-04-21 19:51 | 42.05250 | 11.37714 | 33948 ft | 310 kts | 310° |
| 2026-04-21 19:52 | 42.08212 | 11.33496 | 33950 ft | 309 kts | 310° |
| 2026-04-21 19:52 | 42.11160 | 11.29292 | 33942 ft | 308 kts | 310° |
| 2026-04-21 19:53 | 42.14099 | 11.25096 | 33943 ft | 309 kts | 310° |
| 2026-04-21 19:53 | 42.17052 | 11.20873 | 33951 ft | 309 kts | 310° |
| 2026-04-21 19:54 | 42.19989 | 11.16669 | 33937 ft | 308 kts | 310° |
| 2026-04-21 19:54 | 42.22911 | 11.12477 | 33951 ft | 308 kts | 310° |
| 2026-04-21 19:55 | 42.25869 | 11.08228 | 33938 ft | 309 kts | 310° |
| 2026-04-21 19:55 | 42.28800 | 11.04014 | 33940 ft | 307 kts | 310° |
| 2026-04-21 19:56 | 42.31711 | 10.99820 | 33941 ft | 308 kts | 310° |
| 2026-04-21 19:56 | 42.34662 | 10.95564 | 33944 ft | 309 kts | 310° |
| 2026-04-21 19:57 | 42.37630 | 10.91272 | 33940 ft | 322 kts | 310° |
| 2026-04-21 19:57 | 42.40714 | 10.86803 | 33942 ft | 327 kts | 310° |
| 2026-04-21 19:58 | 42.43792 | 10.82351 | 33939 ft | 321 kts | 310° |
| 2026-04-21 19:58 | 42.46838 | 10.77936 | 33941 ft | 323 kts | 310° |
| 2026-04-21 19:59 | 42.49914 | 10.73466 | 33941 ft | 323 kts | 310° |
| 2026-04-21 19:59 | 42.52970 | 10.69020 | 33940 ft | 321 kts | 310° |
| 2026-04-21 20:00 | 42.56022 | 10.64570 | 33942 ft | 322 kts | 310° |
| 2026-04-21 20:00 | 42.59084 | 10.60100 | 33638 ft | 327 kts | 310° |
| 2026-04-21 20:00 | 42.60635 | 10.57829 | 33264 ft | 325 kts | 310° |
| 2026-04-21 20:01 | 42.62157 | 10.55599 | 32837 ft | 321 kts | 310° |
| 2026-04-21 20:01 | 42.63644 | 10.53421 | 32416 ft | 316 kts | 310° |
| 2026-04-21 20:01 | 42.65135 | 10.51236 | 32000 ft | 314 kts | 310° |
| 2026-04-21 20:01 | 42.66622 | 10.49052 | 31583 ft | 313 kts | 310° |
| 2026-04-21 20:02 | 42.67621 | 10.47586 | 31310 ft | 313 kts | 310° |
| 2026-04-21 20:02 | 42.69572 | 10.44716 | 30781 ft | 312 kts | 310° |
| 2026-04-21 20:02 | 42.71121 | 10.42652 | 30387 ft | 312 kts | 317° |
| 2026-04-21 20:02 | 42.72828 | 10.40883 | 30140 ft | 309 kts | 321° |
| 2026-04-21 20:03 | 42.74597 | 10.39232 | 30037 ft | 310 kts | 322° |
| 2026-04-21 20:03 | 42.78275 | 10.36065 | 29969 ft | 314 kts | 324° |
| 2026-04-21 20:04 | 42.82036 | 10.33033 | 29956 ft | 314 kts | 326° |
| 2026-04-21 20:04 | 42.85827 | 10.30077 | 29954 ft | 314 kts | 326° |
| 2026-04-21 20:05 | 42.89643 | 10.27148 | 29951 ft | 315 kts | 326° |
| 2026-04-21 20:05 | 42.93450 | 10.24249 | 29950 ft | 313 kts | 326° |
| 2026-04-21 20:06 | 42.97267 | 10.21348 | 29951 ft | 313 kts | 326° |
| 2026-04-21 20:06 | 43.01068 | 10.18460 | 29954 ft | 313 kts | 326° |
| 2026-04-21 20:07 | 43.04875 | 10.15567 | 29951 ft | 312 kts | 326° |
| 2026-04-21 20:07 | 43.06788 | 10.14110 | 29649 ft | 317 kts | 326° |
| 2026-04-21 20:07 | 43.08068 | 10.13134 | 29348 ft | 316 kts | 326° |
| 2026-04-21 20:07 | 43.10603 | 10.11205 | 28750 ft | 308 kts | 326° |
| 2026-04-21 20:08 | 43.12462 | 10.09791 | 28259 ft | 305 kts | 326° |
| 2026-04-21 20:08 | 43.14306 | 10.08387 | 27745 ft | 302 kts | 326° |
| 2026-04-21 20:08 | 43.16130 | 10.06995 | 27247 ft | 300 kts | 326° |
| 2026-04-21 20:08 | 43.17947 | 10.05607 | 26749 ft | 297 kts | 326° |
| 2026-04-21 20:09 | 43.19736 | 10.04238 | 26273 ft | 295 kts | 326° |
| 2026-04-21 20:09 | 43.21512 | 10.02877 | 25800 ft | 293 kts | 326° |
| 2026-04-21 20:09 | 43.23303 | 10.01503 | 25329 ft | 292 kts | 326° |
| 2026-04-21 20:09 | 43.25066 | 10.00150 | 24878 ft | 291 kts | 326° |
| 2026-04-21 20:10 | 43.26840 | 9.98791 | 24413 ft | 289 kts | 326° |
| 2026-04-21 20:10 | 43.28583 | 9.97456 | 23969 ft | 287 kts | 326° |
| 2026-04-21 20:10 | 43.30305 | 9.96136 | 23535 ft | 286 kts | 326° |
| 2026-04-21 20:10 | 43.32026 | 9.94816 | 23019 ft | 284 kts | 326° |
| 2026-04-21 20:11 | 43.33763 | 9.93481 | 22506 ft | 283 kts | 326° |
| 2026-04-21 20:11 | 43.35467 | 9.92171 | 22002 ft | 280 kts | 326° |
| 2026-04-21 20:11 | 43.37160 | 9.90868 | 21488 ft | 278 kts | 326° |
| 2026-04-21 20:11 | 43.38274 | 9.90011 | 21179 ft | 277 kts | 326° |
| 2026-04-21 20:12 | 43.40502 | 9.88294 | 20537 ft | 274 kts | 326° |
| 2026-04-21 20:12 | 43.42161 | 9.87014 | 20060 ft | 273 kts | 326° |
| 2026-04-21 20:12 | 43.43272 | 9.86156 | 19753 ft | 271 kts | 326° |
| 2026-04-21 20:12 | 43.44930 | 9.84875 | 19289 ft | 270 kts | 326° |
| 2026-04-21 20:13 | 43.46567 | 9.83609 | 18835 ft | 268 kts | 326° |
| 2026-04-21 20:13 | 43.48188 | 9.82353 | 18389 ft | 267 kts | 326° |
| 2026-04-21 20:13 | 43.49807 | 9.81100 | 17902 ft | 266 kts | 326° |
| 2026-04-21 20:13 | 43.51388 | 9.79874 | 17350 ft | 266 kts | 326° |
| 2026-04-21 20:14 | 43.53029 | 9.78600 | 16801 ft | 265 kts | 326° |
| 2026-04-21 20:14 | 43.54616 | 9.77368 | 16258 ft | 265 kts | 326° |
| 2026-04-21 20:14 | 43.56217 | 9.76124 | 15739 ft | 264 kts | 326° |
| 2026-04-21 20:14 | 43.57812 | 9.74885 | 15303 ft | 261 kts | 326° |
| 2026-04-21 20:15 | 43.59382 | 9.73671 | 15114 ft | 251 kts | 327° |
| 2026-04-21 20:15 | 43.60912 | 9.72486 | 15028 ft | 256 kts | 327° |
| 2026-04-21 20:15 | 43.62477 | 9.71267 | 14994 ft | 259 kts | 327° |
| 2026-04-21 20:15 | 43.64046 | 9.70046 | 14975 ft | 259 kts | 327° |
| 2026-04-21 20:16 | 43.65589 | 9.68846 | 14966 ft | 260 kts | 327° |
| 2026-04-21 20:16 | 43.67195 | 9.67596 | 14964 ft | 261 kts | 327° |
| 2026-04-21 20:16 | 43.68754 | 9.66383 | 14962 ft | 260 kts | 327° |
| 2026-04-21 20:16 | 43.70352 | 9.65139 | 14962 ft | 260 kts | 327° |
| 2026-04-21 20:17 | 43.71914 | 9.63922 | 14964 ft | 261 kts | 327° |
| 2026-04-21 20:17 | 43.73491 | 9.62692 | 14963 ft | 261 kts | 327° |
| 2026-04-21 20:17 | 43.75069 | 9.61461 | 14963 ft | 260 kts | 327° |
| 2026-04-21 20:17 | 43.76631 | 9.60241 | 14962 ft | 261 kts | 327° |
| 2026-04-21 20:18 | 43.78205 | 9.59012 | 14959 ft | 261 kts | 327° |
| 2026-04-21 20:18 | 43.79808 | 9.57759 | 14961 ft | 260 kts | 327° |
| 2026-04-21 20:18 | 43.81388 | 9.56525 | 14959 ft | 260 kts | 327° |
| 2026-04-21 20:18 | 43.82961 | 9.55294 | 14966 ft | 261 kts | 327° |
| 2026-04-21 20:19 | 43.84529 | 9.54064 | 14961 ft | 261 kts | 327° |
| 2026-04-21 20:19 | 43.86102 | 9.52831 | 14960 ft | 260 kts | 327° |
| 2026-04-21 20:19 | 43.87697 | 9.51580 | 14962 ft | 260 kts | 327° |
| 2026-04-21 20:19 | 43.89269 | 9.50346 | 14961 ft | 261 kts | 327° |
| 2026-04-21 20:20 | 43.90851 | 9.49103 | 14960 ft | 261 kts | 327° |
| 2026-04-21 20:20 | 43.92408 | 9.47879 | 14963 ft | 260 kts | 327° |
| 2026-04-21 20:20 | 43.93994 | 9.46610 | 14963 ft | 259 kts | 322° |
| 2026-04-21 20:20 | 43.95104 | 9.44768 | 15004 ft | 256 kts | 288° |
| 2026-04-21 20:21 | 43.95419 | 9.42282 | 14994 ft | 260 kts | 277° |
| 2026-04-21 20:21 | 43.95526 | 9.39788 | 14974 ft | 258 kts | 275° |
| 2026-04-21 20:21 | 43.95579 | 9.37293 | 14967 ft | 259 kts | 274° |
| 2026-04-21 20:21 | 43.95606 | 9.34829 | 14960 ft | 260 kts | 274° |
| 2026-04-21 20:22 | 43.95620 | 9.32315 | 14959 ft | 259 kts | 273° |
| 2026-04-21 20:22 | 43.95629 | 9.27271 | 14955 ft | 260 kts | 273° |
| 2026-04-21 20:22 | 43.95629 | 9.24773 | 14957 ft | 260 kts | 273° |
| 2026-04-21 20:23 | 43.95628 | 9.22294 | 14957 ft | 259 kts | 273° |
| 2026-04-21 20:23 | 43.95627 | 9.19757 | 14958 ft | 260 kts | 273° |
| 2026-04-21 20:23 | 43.95626 | 9.17254 | 14956 ft | 260 kts | 273° |
| 2026-04-21 20:23 | 43.95625 | 9.14750 | 14959 ft | 259 kts | 273° |
| 2026-04-21 20:24 | 43.95624 | 9.12307 | 14961 ft | 259 kts | 273° |
| 2026-04-21 20:24 | 43.95622 | 9.09767 | 14961 ft | 260 kts | 273° |
| 2026-04-21 20:24 | 43.95621 | 9.07256 | 14960 ft | 260 kts | 273° |
| 2026-04-21 20:24 | 43.95621 | 9.04749 | 14956 ft | 259 kts | 273° |
| 2026-04-21 20:25 | 43.95619 | 9.02247 | 14959 ft | 260 kts | 273° |
| 2026-04-21 20:25 | 43.95618 | 8.99742 | 14957 ft | 260 kts | 273° |
| 2026-04-21 20:25 | 43.95616 | 8.97240 | 14955 ft | 259 kts | 273° |
| 2026-04-21 20:25 | 43.95615 | 8.94734 | 14957 ft | 259 kts | 273° |
| 2026-04-21 20:26 | 43.95615 | 8.92234 | 14957 ft | 260 kts | 273° |
| 2026-04-21 20:26 | 43.95615 | 8.89725 | 14959 ft | 260 kts | 273° |
| 2026-04-21 20:26 | 43.95615 | 8.87217 | 14959 ft | 259 kts | 273° |
| 2026-04-21 20:26 | 43.95613 | 8.84721 | 14954 ft | 259 kts | 273° |
| 2026-04-21 20:27 | 43.95612 | 8.82229 | 14954 ft | 260 kts | 273° |
| 2026-04-21 20:27 | 43.95611 | 8.79706 | 14953 ft | 259 kts | 273° |
| 2026-04-21 20:27 | 43.95611 | 8.77207 | 14954 ft | 259 kts | 273° |
| 2026-04-21 20:27 | 43.95610 | 8.74717 | 14958 ft | 259 kts | 273° |
| 2026-04-21 20:28 | 43.95610 | 8.72204 | 14956 ft | 260 kts | 273° |
| 2026-04-21 20:28 | 43.95667 | 8.69706 | 14955 ft | 256 kts | 285° |
| 2026-04-21 20:28 | 43.96544 | 8.67628 | 15005 ft | 258 kts | 321° |
| 2026-04-21 20:28 | 43.98253 | 8.66790 | 15031 ft | 273 kts | 356° |
| 2026-04-21 20:29 | 44.00090 | 8.67578 | 15029 ft | 291 kts | 30° |
| 2026-04-21 20:29 | 44.01412 | 8.69775 | 15024 ft | 308 kts | 63° |
| 2026-04-21 20:29 | 44.01804 | 8.72733 | 15013 ft | 319 kts | 88° |
| 2026-04-21 20:29 | 44.01693 | 8.75819 | 14973 ft | 319 kts | 92° |
| 2026-04-21 20:30 | 44.01488 | 8.78865 | 14959 ft | 318 kts | 93° |
| 2026-04-21 20:30 | 44.01246 | 8.81949 | 14951 ft | 319 kts | 94° |
| 2026-04-21 20:30 | 44.00989 | 8.85010 | 14952 ft | 319 kts | 94° |
| 2026-04-21 20:30 | 44.00724 | 8.88070 | 14946 ft | 319 kts | 94° |
| 2026-04-21 20:31 | 44.00457 | 8.91119 | 14948 ft | 319 kts | 94° |
| 2026-04-21 20:31 | 44.00187 | 8.94174 | 14950 ft | 320 kts | 94° |
| 2026-04-21 20:31 | 43.99914 | 8.97248 | 14860 ft | 321 kts | 94° |
| 2026-04-21 20:31 | 43.99642 | 9.00346 | 14403 ft | 322 kts | 95° |
| 2026-04-21 20:32 | 43.99375 | 9.03409 | 14002 ft | 317 kts | 95° |
| 2026-04-21 20:32 | 43.99112 | 9.06433 | 13549 ft | 313 kts | 95° |
| 2026-04-21 20:32 | 43.98855 | 9.09419 | 13078 ft | 310 kts | 95° |
| 2026-04-21 20:32 | 43.98613 | 9.12386 | 12599 ft | 307 kts | 92° |
| 2026-04-21 20:33 | 43.98568 | 9.15318 | 12124 ft | 302 kts | 79° |
| 2026-04-21 20:33 | 43.99130 | 9.18070 | 11650 ft | 295 kts | 64° |
| 2026-04-21 20:33 | 43.99963 | 9.20618 | 11309 ft | 285 kts | 56° |
| 2026-04-21 20:33 | 44.01069 | 9.22865 | 10862 ft | 280 kts | 47° |
| 2026-04-21 20:34 | 44.02313 | 9.24927 | 10449 ft | 277 kts | 45° |
| 2026-04-21 20:34 | 44.03696 | 9.26703 | 10212 ft | 264 kts | 34° |
| 2026-04-21 20:34 | 44.04997 | 9.28540 | 10108 ft | 272 kts | 49° |
| 2026-04-21 20:34 | 44.06101 | 9.30663 | 10049 ft | 275 kts | 52° |
| 2026-04-21 20:35 | 44.07178 | 9.32853 | 10005 ft | 275 kts | 53° |
| 2026-04-21 20:35 | 44.08259 | 9.35090 | 9986 ft | 276 kts | 53° |
| 2026-04-21 20:35 | 44.09311 | 9.37284 | 9973 ft | 276 kts | 53° |
| 2026-04-21 20:35 | 44.10381 | 9.39525 | 9974 ft | 275 kts | 53° |
| 2026-04-21 20:36 | 44.11429 | 9.41719 | 9968 ft | 275 kts | 53° |
| 2026-04-21 20:36 | 44.12488 | 9.43936 | 9818 ft | 275 kts | 53° |
| 2026-04-21 20:36 | 44.13558 | 9.46171 | 9377 ft | 272 kts | 53° |
| 2026-04-21 20:36 | 44.14593 | 9.48318 | 8942 ft | 269 kts | 53° |
| 2026-04-21 20:37 | 44.15633 | 9.50463 | 8531 ft | 267 kts | 53° |
| 2026-04-21 20:37 | 44.16665 | 9.52571 | 8267 ft | 258 kts | 52° |
| 2026-04-21 20:37 | 44.17937 | 9.54139 | 8111 ft | 238 kts | 16° |
| 2026-04-21 20:37 | 44.19491 | 9.54218 | 7921 ft | 220 kts | 334° |
| 2026-04-21 20:38 | 44.20596 | 9.52843 | 7483 ft | 219 kts | 291° |
| 2026-04-21 20:38 | 44.20944 | 9.50781 | 7084 ft | 220 kts | 277° |
| 2026-04-21 20:38 | 44.21103 | 9.48653 | 6730 ft | 220 kts | 275° |
| 2026-04-21 20:38 | 44.21217 | 9.46529 | 6382 ft | 221 kts | 274° |
| 2026-04-21 20:39 | 44.21310 | 9.44378 | 6167 ft | 221 kts | 274° |
| 2026-04-21 20:39 | 44.21390 | 9.42265 | 6082 ft | 217 kts | 273° |
| 2026-04-21 20:39 | 44.21466 | 9.40155 | 6045 ft | 219 kts | 273° |
| 2026-04-21 20:39 | 44.21542 | 9.38049 | 6026 ft | 218 kts | 276° |
| 2026-04-21 20:40 | 44.22053 | 9.36099 | 6087 ft | 218 kts | 306° |
| 2026-04-21 20:40 | 44.23005 | 9.34438 | 6041 ft | 218 kts | 311° |
| 2026-04-21 20:40 | 44.24011 | 9.32859 | 6022 ft | 217 kts | 312° |
| 2026-04-21 20:40 | 44.25033 | 9.31305 | 6023 ft | 218 kts | 313° |
| 2026-04-21 20:41 | 44.26069 | 9.29757 | 6010 ft | 217 kts | 313° |
| 2026-04-21 20:41 | 44.27108 | 9.28221 | 6012 ft | 218 kts | 313° |
| 2026-04-21 20:41 | 44.28139 | 9.26706 | 5998 ft | 208 kts | 313° |
| 2026-04-21 20:41 | 44.29119 | 9.25271 | 6014 ft | 203 kts | 313° |
| 2026-04-21 20:42 | 44.30094 | 9.23843 | 6008 ft | 203 kts | 313° |
| 2026-04-21 20:42 | 44.31066 | 9.22418 | 6010 ft | 202 kts | 313° |
| 2026-04-21 20:42 | 44.32021 | 9.21004 | 6015 ft | 203 kts | 313° |
| 2026-04-21 20:42 | 44.32962 | 9.19528 | 5933 ft | 206 kts | 306° |
| 2026-04-21 20:43 | 44.33699 | 9.17709 | 5295 ft | 219 kts | 295° |
| 2026-04-21 20:43 | 44.34293 | 9.15825 | 4825 ft | 208 kts | 292° |
| 2026-04-21 20:43 | 44.34785 | 9.13981 | 4431 ft | 192 kts | 288° |
| 2026-04-21 20:43 | 44.35170 | 9.12289 | 4117 ft | 175 kts | 287° |
| 2026-04-21 20:44 | 44.35508 | 9.10734 | 3874 ft | 160 kts | 287° |
| 2026-04-21 20:44 | 44.35827 | 9.09252 | 3636 ft | 160 kts | 287° |
| 2026-04-21 20:44 | 44.36149 | 9.07759 | 3408 ft | 160 kts | 287° |
| 2026-04-21 20:44 | 44.36469 | 9.06284 | 3187 ft | 158 kts | 287° |
| 2026-04-21 20:45 | 44.36789 | 9.04808 | 2957 ft | 158 kts | 287° |
| 2026-04-21 20:45 | 44.37106 | 9.03342 | 2745 ft | 158 kts | 287° |
| 2026-04-21 20:45 | 44.37414 | 9.01922 | 2528 ft | 148 kts | 287° |
| 2026-04-21 20:45 | 44.37689 | 9.00653 | 2350 ft | 142 kts | 287° |
| 2026-04-21 20:46 | 44.37973 | 8.99338 | 2154 ft | 145 kts | 287° |
| 2026-04-21 20:46 | 44.38265 | 8.97994 | 1939 ft | 144 kts | 287° |
| 2026-04-21 20:46 | 44.38556 | 8.96650 | 1731 ft | 145 kts | 287° |
| 2026-04-21 20:46 | 44.38848 | 8.95298 | 1519 ft | 144 kts | 287° |
| 2026-04-21 20:47 | 44.39137 | 8.93963 | 1311 ft | 144 kts | 287° |
| 2026-04-21 20:47 | 44.39427 | 8.92627 | 1103 ft | 143 kts | 287° |
| 2026-04-21 20:47 | 44.39712 | 8.91307 | 908 ft | 141 kts | 287° |
| 2026-04-21 20:47 | 44.39995 | 8.89995 | 717 ft | 142 kts | 287° |
| 2026-04-21 20:48 | 44.40277 | 8.88684 | 514 ft | 140 kts | 286° |
| 2026-04-21 20:48 | 44.40556 | 8.87387 | 317 ft | 140 kts | 287° |
| 2026-04-21 20:48 | 44.40832 | 8.86108 | 120 ft | 135 kts | 287° |
| 2026-04-21 20:48 | 44.41085 | 8.84844 | 41 ft | 131 kts | 281° |
| 2026-04-21 20:49 | 44.41243 | 8.83919 | 20 ft | 51 kts | 287° |
| 2026-04-21 20:49 | 44.41323 | 8.83540 | 19 ft | 44 kts | 285° |
| 2026-04-21 20:49 | 44.41417 | 8.83175 | 19 ft | 34 kts | 307° |
| 2026-04-21 20:49 | 44.41495 | 8.83102 | 19 ft | 0 kts | 1° |
| 2026-04-21 20:50 | 44.41534 | 8.83127 | 20 ft | 10 kts | 50° |
| 2026-04-21 20:50 | 44.41540 | 8.83227 | 21 ft | 7 kts | 98° |
| 2026-04-21 20:50 | 44.41522 | 8.83330 | 20 ft | 15 kts | 110° |
| 2026-04-21 20:50 | 44.41481 | 8.83511 | 20 ft | 24 kts | 104° |
| 2026-04-21 20:51 | 44.41448 | 8.83695 | 19 ft | 15 kts | 104° |
| 2026-04-21 20:51 | 44.41415 | 8.83876 | 19 ft | 21 kts | 104° |
| 2026-04-21 20:51 | 44.41378 | 8.84066 | 19 ft | 19 kts | 105° |
| 2026-04-21 20:51 | 44.41354 | 8.84186 | 21 ft | 11 kts | 105° |
| 2026-04-21 20:52 | 44.41340 | 8.84252 | 21 ft | 1 kts | 105° |
| 2026-04-21 20:52 | 44.41334 | 8.84286 | 19 ft | 7 kts | 105° |
| 2026-04-21 20:52 | 44.41322 | 8.84371 | 20 ft | 7 kts | 88° |
| 2026-04-21 20:52 | 44.41330 | 8.84416 | 20 ft | 3 kts | 68° |
| 2026-04-21 20:53 | 44.41368 | 8.84500 | 20 ft | 15 kts | 54° |
| 2026-04-21 20:53 | 44.41431 | 8.84617 | 20 ft | 13 kts | 53° |
| 2026-04-21 20:53 | 44.41483 | 8.84699 | 20 ft | 7 kts | 32° |
| 2026-04-21 20:53 | 44.41521 | 8.84681 | 20 ft | 5 kts | 316° |
| 2026-04-21 20:54 | 44.41547 | 8.84645 | 20 ft | 5 kts | 319° |
| 2026-04-21 20:54 | 44.41549 | 8.84643 | 20 ft | 0 kts | 320° |